sensor_id;sensor_type;location;lat;lon;timestamp;pressure;altitude;pressure_sealevel;temperature;humidity
19086;BME280;9675;51.538;6.728;2023-08-07T00:01:46;100782.44;;;15.70;100.00
19086;BME280;9675;51.538;6.728;2023-08-07T00:04:13;100779.00;;;15.71;100.00
19086;BME280;9675;51.538;6.728;2023-08-07T00:06:40;100787.63;;;15.70;100.00
19086;BME280;9675;51.538;6.728;2023-08-07T00:09:06;100778.94;;;15.68;100.00
19086;BME280;9675;51.538;6.728;2023-08-07T00:11:33;100786.72;;;15.68;100.00
19086;BME280;9675;51.538;6.728;2023-08-07T00:14:00;100786.69;;;15.67;100.00
19086;BME280;9675;51.538;6.728;2023-08-07T00:16:27;100786.69;;;15.67;100.00
19086;BME280;9675;51.538;6.728;2023-08-07T00:18:56;100790.09;;;15.66;100.00
19086;BME280;9675;51.538;6.728;2023-08-07T00:21:23;100794.41;;;15.65;100.00
19086;BME280;9675;51.538;6.728;2023-08-07T00:23:50;100800.47;;;15.64;100.00
19086;BME280;9675;51.538;6.728;2023-08-07T00:26:17;100795.22;;;15.63;100.00
19086;BME280;9675;51.538;6.728;2023-08-07T00:28:45;100786.56;;;15.62;100.00
19086;BME280;9675;51.538;6.728;2023-08-07T00:31:12;100796.00;;;15.60;100.00
19086;BME280;9675;51.538;6.728;2023-08-07T00:33:39;100797.69;;;15.58;100.00
19086;BME280;9675;51.538;6.728;2023-08-07T00:36:08;100799.34;;;15.56;100.00
19086;BME280;9675;51.538;6.728;2023-08-07T00:38:35;100799.41;;;15.58;100.00
19086;BME280;9675;51.538;6.728;2023-08-07T00:41:02;100808.06;;;15.58;100.00
19086;BME280;9675;51.538;6.728;2023-08-07T00:43:29;100807.19;;;15.58;100.00
19086;BME280;9675;51.538;6.728;2023-08-07T00:45:56;100801.88;;;15.55;100.00
19086;BME280;9675;51.538;6.728;2023-08-07T00:48:23;100807.88;;;15.52;100.00
19086;BME280;9675;51.538;6.728;2023-08-07T00:50:51;100803.53;;;15.51;100.00
19086;BME280;9675;51.538;6.728;2023-08-07T00:53:20;100800.03;;;15.51;100.00
19086;BME280;9675;51.538;6.728;2023-08-07T00:55:48;100798.25;;;15.50;100.00
19086;BME280;9675;51.538;6.728;2023-08-07T00:58:15;100806.91;;;15.49;100.00
19086;BME280;9675;51.538;6.728;2023-08-07T01:00:42;100806.00;;;15.48;100.00
19086;BME280;9675;51.538;6.728;2023-08-07T01:03:12;100810.28;;;15.46;100.00
19086;BME280;9675;51.538;6.728;2023-08-07T01:05:40;100811.94;;;15.44;100.00
19086;BME280;9675;51.538;6.728;2023-08-07T01:08:07;100799.84;;;15.45;100.00
19086;BME280;9675;51.538;6.728;2023-08-07T01:10:53;100804.13;;;15.44;100.00
19086;BME280;9675;51.538;6.728;2023-08-07T01:13:33;100799.81;;;15.43;100.00
19086;BME280;9675;51.538;6.728;2023-08-07T01:16:10;100804.13;;;15.44;100.00
19086;BME280;9675;51.538;6.728;2023-08-07T01:18:40;100808.47;;;15.44;100.00
19086;BME280;9675;51.538;6.728;2023-08-07T01:21:17;100805.91;;;15.45;100.00
19086;BME280;9675;51.538;6.728;2023-08-07T01:23:46;100804.13;;;15.44;100.00
19086;BME280;9675;51.538;6.728;2023-08-07T01:26:13;100811.91;;;15.43;100.00
19086;BME280;9675;51.538;6.728;2023-08-07T01:28:47;100816.22;;;15.42;100.00
19086;BME280;9675;51.538;6.728;2023-08-07T01:31:20;100805.72;;;15.39;100.00
19086;BME280;9675;51.538;6.728;2023-08-07T01:33:57;100812.59;;;15.37;100.00
19086;BME280;9675;51.538;6.728;2023-08-07T01:36:28;100805.66;;;15.36;100.00
19086;BME280;9675;51.538;6.728;2023-08-07T01:38:59;100812.50;;;15.34;100.00
19086;BME280;9675;51.538;6.728;2023-08-07T01:41:28;100808.19;;;15.35;100.00
19086;BME280;9675;51.538;6.728;2023-08-07T01:43:55;100800.47;;;15.36;100.00
19086;BME280;9675;51.538;6.728;2023-08-07T01:46:23;100807.41;;;15.37;100.00
19086;BME280;9675;51.538;6.728;2023-08-07T01:48:50;100805.56;;;15.33;100.00
19086;BME280;9675;51.538;6.728;2023-08-07T01:51:17;100817.66;;;15.32;100.00
19086;BME280;9675;51.538;6.728;2023-08-07T01:53:44;100812.41;;;15.31;100.00
19086;BME280;9675;51.538;6.728;2023-08-07T01:56:14;100812.34;;;15.28;100.00
19086;BME280;9675;51.538;6.728;2023-08-07T01:58:41;100816.59;;;15.26;100.00
19086;BME280;9675;51.538;6.728;2023-08-07T02:01:08;100814.81;;;15.25;100.00
19086;BME280;9675;51.538;6.728;2023-08-07T02:03:35;100823.47;;;15.25;100.00
19086;BME280;9675;51.538;6.728;2023-08-07T02:06:02;100836.41;;;15.24;100.00
19086;BME280;9675;51.538;6.728;2023-08-07T02:08:29;100829.50;;;15.24;100.00
19086;BME280;9675;51.538;6.728;2023-08-07T02:10:56;100835.50;;;15.23;100.00
19086;BME280;9675;51.538;6.728;2023-08-07T02:13:28;100834.66;;;15.23;100.00
19086;BME280;9675;51.538;6.728;2023-08-07T02:15:55;100845.91;;;15.23;100.00
19086;BME280;9675;51.538;6.728;2023-08-07T02:18:22;100842.41;;;15.21;100.00
19086;BME280;9675;51.538;6.728;2023-08-07T02:20:49;100832.78;;;15.19;100.00
19086;BME280;9675;51.538;6.728;2023-08-07T02:23:16;100847.44;;;15.17;100.00
19086;BME280;9675;51.538;6.728;2023-08-07T02:25:43;100851.69;;;15.15;100.00
19086;BME280;9675;51.538;6.728;2023-08-07T02:28:11;100847.31;;;15.14;100.00
19086;BME280;9675;51.538;6.728;2023-08-07T02:30:39;100849.00;;;15.12;100.00
19086;BME280;9675;51.538;6.728;2023-08-07T02:33:06;100852.44;;;15.11;100.00
19086;BME280;9675;51.538;6.728;2023-08-07T02:35:33;100852.44;;;15.11;100.00
19086;BME280;9675;51.538;6.728;2023-08-07T02:38:00;100849.78;;;15.09;100.00
19086;BME280;9675;51.538;6.728;2023-08-07T02:40:27;100849.72;;;15.08;100.00
19086;BME280;9675;51.538;6.728;2023-08-07T02:42:54;100848.91;;;15.09;100.00
19086;BME280;9675;51.538;6.728;2023-08-07T02:45:21;100854.09;;;15.09;100.00
19086;BME280;9675;51.538;6.728;2023-08-07T02:47:49;100854.09;;;15.09;100.00
19086;BME280;9675;51.538;6.728;2023-08-07T02:50:16;100852.31;;;15.08;100.00
19086;BME280;9675;51.538;6.728;2023-08-07T02:52:43;100854.00;;;15.06;100.00
19086;BME280;9675;51.538;6.728;2023-08-07T02:55:10;100851.41;;;15.06;100.00
19086;BME280;9675;51.538;6.728;2023-08-07T02:57:37;100863.56;;;15.07;100.00
19086;BME280;9675;51.538;6.728;2023-08-07T03:00:06;100859.25;;;15.07;100.00
19086;BME280;9675;51.538;6.728;2023-08-07T03:02:33;100861.66;;;15.03;100.00
19086;BME280;9675;51.538;6.728;2023-08-07T03:05:02;100858.16;;;15.01;100.00
19086;BME280;9675;51.538;6.728;2023-08-07T03:07:29;100871.13;;;15.01;100.00
19086;BME280;9675;51.538;6.728;2023-08-07T03:09:56;100866.78;;;15.00;100.00
19086;BME280;9675;51.538;6.728;2023-08-07T03:12:23;100852.88;;;14.98;100.00
19086;BME280;9675;51.538;6.728;2023-08-07T03:14:51;100864.03;;;14.95;100.00
19086;BME280;9675;51.538;6.728;2023-08-07T03:17:18;100855.38;;;14.95;100.00
19086;BME280;9675;51.538;6.728;2023-08-07T03:19:46;100863.06;;;14.92;100.00
19086;BME280;9675;51.538;6.728;2023-08-07T03:22:14;100863.94;;;14.92;100.00
19086;BME280;9675;51.538;6.728;2023-08-07T03:24:46;100857.75;;;14.88;100.00
19086;BME280;9675;51.538;6.728;2023-08-07T03:27:14;100862.94;;;14.88;100.00
19086;BME280;9675;51.538;6.728;2023-08-07T03:29:41;100857.75;;;14.88;100.00
19086;BME280;9675;51.538;6.728;2023-08-07T03:32:08;100853.47;;;14.89;100.00
19086;BME280;9675;51.538;6.728;2023-08-07T03:34:35;100853.53;;;14.91;100.00
19086;BME280;9675;51.538;6.728;2023-08-07T03:37:03;100859.63;;;14.93;100.00
19086;BME280;9675;51.538;6.728;2023-08-07T03:39:31;100864.72;;;14.89;100.00
19086;BME280;9675;51.538;6.728;2023-08-07T03:41:58;100859.53;;;14.89;100.00
19086;BME280;9675;51.538;6.728;2023-08-07T03:44:26;100863.84;;;14.89;100.00
19086;BME280;9675;51.538;6.728;2023-08-07T03:46:53;100863.84;;;14.89;100.00
19086;BME280;9675;51.538;6.728;2023-08-07T03:49:22;100862.06;;;14.88;100.00
19086;BME280;9675;51.538;6.728;2023-08-07T03:51:49;100859.44;;;14.86;100.00
19086;BME280;9675;51.538;6.728;2023-08-07T03:54:16;100862.88;;;14.85;100.00
19086;BME280;9675;51.538;6.728;2023-08-07T03:56:44;100868.03;;;14.85;100.00
19086;BME280;9675;51.538;6.728;2023-08-07T03:59:12;100867.94;;;14.82;100.00
19086;BME280;9675;51.538;6.728;2023-08-07T04:01:39;100866.19;;;14.81;100.00
19086;BME280;9675;51.538;6.728;2023-08-07T04:04:06;100867.03;;;14.80;100.00
19086;BME280;9675;51.538;6.728;2023-08-07T04:06:33;100866.97;;;14.79;100.00
19086;BME280;9675;51.538;6.728;2023-08-07T04:09:00;100866.97;;;14.79;100.00
19086;BME280;9675;51.538;6.728;2023-08-07T04:11:29;100864.31;;;14.77;100.00
19086;BME280;9675;51.538;6.728;2023-08-07T04:13:57;100863.47;;;14.78;100.00
19086;BME280;9675;51.538;6.728;2023-08-07T04:16:24;100857.31;;;14.75;100.00
19086;BME280;9675;51.538;6.728;2023-08-07T04:18:51;100855.63;;;14.75;100.00
19086;BME280;9675;51.538;6.728;2023-08-07T04:21:18;100858.22;;;14.75;100.00
19086;BME280;9675;51.538;6.728;2023-08-07T04:23:45;100862.44;;;14.73;100.00
19086;BME280;9675;51.538;6.728;2023-08-07T04:26:12;100859.03;;;14.74;100.00
19086;BME280;9675;51.538;6.728;2023-08-07T04:28:40;100857.22;;;14.72;100.00
19086;BME280;9675;51.538;6.728;2023-08-07T04:31:08;100867.63;;;14.73;100.00
19086;BME280;9675;51.538;6.728;2023-08-07T04:33:35;100859.03;;;14.74;100.00
19086;BME280;9675;51.538;6.728;2023-08-07T04:36:03;100860.81;;;14.75;100.00
19086;BME280;9675;51.538;6.728;2023-08-07T04:38:30;100855.50;;;14.72;100.00
19086;BME280;9675;51.538;6.728;2023-08-07T04:40:57;100848.47;;;14.68;100.00
19086;BME280;9675;51.538;6.728;2023-08-07T04:43:24;100862.25;;;14.67;100.00
19086;BME280;9675;51.538;6.728;2023-08-07T04:45:53;100874.38;;;14.68;100.00
19086;BME280;9675;51.538;6.728;2023-08-07T04:48:21;100866.59;;;14.68;100.00
19086;BME280;9675;51.538;6.728;2023-08-07T04:50:51;100863.13;;;14.68;100.00
19086;BME280;9675;51.538;6.728;2023-08-07T04:53:18;100868.22;;;14.65;100.00
19086;BME280;9675;51.538;6.728;2023-08-07T04:55:46;100865.56;;;14.63;100.00
19086;BME280;9675;51.538;6.728;2023-08-07T04:58:13;100859.63;;;14.66;100.00
19086;BME280;9675;51.538;6.728;2023-08-07T05:00:40;100860.31;;;14.62;100.00
19086;BME280;9675;51.538;6.728;2023-08-07T05:03:06;100856.00;;;14.61;100.00
19086;BME280;9675;51.538;6.728;2023-08-07T05:05:35;100855.13;;;14.60;100.00
19086;BME280;9675;51.538;6.728;2023-08-07T05:08:02;100863.72;;;14.59;100.00
19086;BME280;9675;51.538;6.728;2023-08-07T05:10:29;100867.13;;;14.58;100.00
19086;BME280;9675;51.538;6.728;2023-08-07T05:12:56;100863.72;;;14.59;100.00
19086;BME280;9675;51.538;6.728;2023-08-07T05:15:24;100871.47;;;14.59;100.00
19086;BME280;9675;51.538;6.728;2023-08-07T05:17:52;100858.53;;;14.59;100.00
19086;BME280;9675;51.538;6.728;2023-08-07T05:20:19;100855.81;;;14.56;100.00
19086;BME280;9675;51.538;6.728;2023-08-07T05:22:48;100867.84;;;14.54;100.00
19086;BME280;9675;51.538;6.728;2023-08-07T05:25:16;100863.50;;;14.53;100.00
19086;BME280;9675;51.538;6.728;2023-08-07T05:27:44;100866.97;;;14.54;100.00
19086;BME280;9675;51.538;6.728;2023-08-07T05:30:13;100867.84;;;14.54;100.00
19086;BME280;9675;51.538;6.728;2023-08-07T05:32:40;100875.50;;;14.51;100.00
19086;BME280;9675;51.538;6.728;2023-08-07T05:35:08;100872.09;;;14.52;100.00
19086;BME280;9675;51.538;6.728;2023-08-07T05:37:35;100873.78;;;14.50;100.00
19086;BME280;9675;51.538;6.728;2023-08-07T05:40:06;100889.31;;;14.50;100.00
19086;BME280;9675;51.538;6.728;2023-08-07T05:42:33;100884.91;;;14.48;100.00
19086;BME280;9675;51.538;6.728;2023-08-07T05:45:00;100900.34;;;14.44;100.00
19086;BME280;9675;51.538;6.728;2023-08-07T05:47:27;100896.88;;;14.44;100.00
19086;BME280;9675;51.538;6.728;2023-08-07T05:49:54;100901.16;;;14.43;100.00
19086;BME280;9675;51.538;6.728;2023-08-07T05:52:21;100908.06;;;14.43;100.00
19086;BME280;9675;51.538;6.728;2023-08-07T05:54:48;100897.69;;;14.43;100.00
19086;BME280;9675;51.538;6.728;2023-08-07T05:57:18;100896.06;;;14.45;100.00
19086;BME280;9675;51.538;6.728;2023-08-07T05:59:45;100897.75;;;14.44;100.00
19086;BME280;9675;51.538;6.728;2023-08-07T06:02:12;100901.16;;;14.43;100.00
19086;BME280;9675;51.538;6.728;2023-08-07T06:04:39;100908.13;;;14.44;100.00
19086;BME280;9675;51.538;6.728;2023-08-07T06:07:06;100907.25;;;14.44;100.00
19086;BME280;9675;51.538;6.728;2023-08-07T06:09:33;100918.44;;;14.43;100.00
19086;BME280;9675;51.538;6.728;2023-08-07T06:12:00;100923.59;;;14.43;100.00
19086;BME280;9675;51.538;6.728;2023-08-07T06:14:29;100921.91;;;14.43;100.00
19086;BME280;9675;51.538;6.728;2023-08-07T06:16:56;100928.00;;;14.45;100.00
19086;BME280;9675;51.538;6.728;2023-08-07T06:19:23;100928.78;;;14.43;100.00
19086;BME280;9675;51.538;6.728;2023-08-07T06:21:52;100925.38;;;14.44;100.00
19086;BME280;9675;51.538;6.728;2023-08-07T06:24:20;100940.94;;;14.44;100.00
19086;BME280;9675;51.538;6.728;2023-08-07T06:26:47;100942.69;;;14.45;100.00
19086;BME280;9675;51.538;6.728;2023-08-07T06:29:14;100935.84;;;14.47;100.00
19086;BME280;9675;51.538;6.728;2023-08-07T06:31:42;100939.25;;;14.46;100.00
19086;BME280;9675;51.538;6.728;2023-08-07T06:34:09;100931.53;;;14.48;100.00
19086;BME280;9675;51.538;6.728;2023-08-07T06:36:36;100945.31;;;14.46;100.00
19086;BME280;9675;51.538;6.728;2023-08-07T06:39:03;100953.16;;;14.48;100.00
19086;BME280;9675;51.538;6.728;2023-08-07T06:41:30;100946.19;;;14.47;100.00
19086;BME280;9675;51.538;6.728;2023-08-07T06:43:57;100954.78;;;14.46;100.00
19086;BME280;9675;51.538;6.728;2023-08-07T06:46:24;100958.34;;;14.48;100.00
19086;BME280;9675;51.538;6.728;2023-08-07T06:48:54;100950.50;;;14.46;100.00
19086;BME280;9675;51.538;6.728;2023-08-07T06:51:21;100958.34;;;14.48;100.00
19086;BME280;9675;51.538;6.728;2023-08-07T06:53:49;100966.16;;;14.50;100.00
19086;BME280;9675;51.538;6.728;2023-08-07T06:56:16;100960.09;;;14.49;100.00
19086;BME280;9675;51.538;6.728;2023-08-07T06:58:43;100967.06;;;14.50;100.00
19086;BME280;9675;51.538;6.728;2023-08-07T07:01:10;100967.94;;;14.51;100.00
19086;BME280;9675;51.538;6.728;2023-08-07T07:03:37;100974.75;;;14.49;100.00
19086;BME280;9675;51.538;6.728;2023-08-07T07:06:06;100978.31;;;14.51;100.00
19086;BME280;9675;51.538;6.728;2023-08-07T07:08:33;100975.75;;;14.52;100.00
19086;BME280;9675;51.538;6.728;2023-08-07T07:11:00;100979.16;;;14.51;100.00
19086;BME280;9675;51.538;6.728;2023-08-07T07:13:27;100989.53;;;14.51;100.00
19086;BME280;9675;51.538;6.728;2023-08-07T07:15:54;100990.41;;;14.52;100.00
19086;BME280;9675;51.538;6.728;2023-08-07T07:18:22;100984.34;;;14.51;100.00
19086;BME280;9675;51.538;6.728;2023-08-07T07:20:56;100986.09;;;14.51;100.00
19086;BME280;9675;51.538;6.728;2023-08-07T07:23:26;101000.75;;;14.50;100.00
19086;BME280;9675;51.538;6.728;2023-08-07T07:25:53;101003.34;;;14.50;100.00
19086;BME280;9675;51.538;6.728;2023-08-07T07:28:21;100998.16;;;14.50;100.00
19086;BME280;9675;51.538;6.728;2023-08-07T07:30:49;101005.97;;;14.52;100.00
19086;BME280;9675;51.538;6.728;2023-08-07T07:33:16;101019.78;;;14.51;100.00
19086;BME280;9675;51.538;6.728;2023-08-07T07:35:43;101010.25;;;14.51;100.00
19086;BME280;9675;51.538;6.728;2023-08-07T07:38:10;101018.88;;;14.50;100.00
19086;BME280;9675;51.538;6.728;2023-08-07T07:40:39;101020.59;;;14.50;100.00
19086;BME280;9675;51.538;6.728;2023-08-07T07:43:06;101028.38;;;14.51;100.00
19086;BME280;9675;51.538;6.728;2023-08-07T07:45:33;101037.03;;;14.50;100.00
19086;BME280;9675;51.538;6.728;2023-08-07T07:48:01;101042.22;;;14.52;100.00
19086;BME280;9675;51.538;6.728;2023-08-07T07:50:28;101042.31;;;14.53;100.00
19086;BME280;9675;51.538;6.728;2023-08-07T07:52:56;101045.72;;;14.52;100.00
19086;BME280;9675;51.538;6.728;2023-08-07T07:55:24;101052.66;;;14.53;100.00
19086;BME280;9675;51.538;6.728;2023-08-07T07:57:54;101054.38;;;14.53;100.00
19086;BME280;9675;51.538;6.728;2023-08-07T08:00:21;101057.03;;;14.54;100.00
19086;BME280;9675;51.538;6.728;2023-08-07T08:02:52;101065.72;;;14.56;100.00
19086;BME280;9675;51.538;6.728;2023-08-07T08:05:19;101066.59;;;14.57;100.00
19086;BME280;9675;51.538;6.728;2023-08-07T08:07:46;101067.50;;;14.57;100.00
19086;BME280;9675;51.538;6.728;2023-08-07T08:10:13;101071.94;;;14.60;100.00
19086;BME280;9675;51.538;6.728;2023-08-07T08:12:40;101081.50;;;14.62;100.00
19086;BME280;9675;51.538;6.728;2023-08-07T08:15:09;101079.81;;;14.63;100.00
19086;BME280;9675;51.538;6.728;2023-08-07T08:17:36;101082.47;;;14.64;100.00
19086;BME280;9675;51.538;6.728;2023-08-07T08:20:06;101085.94;;;14.65;100.00
19086;BME280;9675;51.538;6.728;2023-08-07T08:22:33;101095.50;;;14.67;100.00
19086;BME280;9675;51.538;6.728;2023-08-07T08:25:01;101092.09;;;14.68;100.00
19086;BME280;9675;51.538;6.728;2023-08-07T08:27:30;101092.25;;;14.71;100.00
19086;BME280;9675;51.538;6.728;2023-08-07T08:29:57;101096.63;;;14.74;100.00
19086;BME280;9675;51.538;6.728;2023-08-07T08:32:25;101094.03;;;14.74;100.00
19086;BME280;9675;51.538;6.728;2023-08-07T08:34:52;101111.44;;;14.76;100.00
19086;BME280;9675;51.538;6.728;2023-08-07T08:37:19;101114.03;;;14.76;100.00
19086;BME280;9675;51.538;6.728;2023-08-07T08:39:46;101105.41;;;14.77;100.00
19086;BME280;9675;51.538;6.728;2023-08-07T08:42:14;101103.75;;;14.79;100.00
19086;BME280;9675;51.538;6.728;2023-08-07T08:44:48;101105.56;;;14.82;100.00
19086;BME280;9675;51.538;6.728;2023-08-07T08:47:18;101111.69;;;14.84;100.00
19086;BME280;9675;51.538;6.728;2023-08-07T08:49:51;101116.97;;;14.87;100.00
19086;BME280;9675;51.538;6.728;2023-08-07T08:52:21;101117.94;;;14.89;100.00
19086;BME280;9675;51.538;6.728;2023-08-07T08:54:50;101128.38;;;14.91;100.00
19086;BME280;9675;51.538;6.728;2023-08-07T08:57:18;101120.69;;;14.94;100.00
19086;BME280;9675;51.538;6.728;2023-08-07T08:59:45;101126.00;;;14.97;100.00
19086;BME280;9675;51.538;6.728;2023-08-07T09:02:12;101118.38;;;15.01;100.00
19086;BME280;9675;51.538;6.728;2023-08-07T09:04:39;101126.41;;;15.07;100.00
19086;BME280;9675;51.538;6.728;2023-08-07T09:07:10;101120.53;;;15.13;100.00
19086;BME280;9675;51.538;6.728;2023-08-07T09:09:38;101127.53;;;15.15;100.00
19086;BME280;9675;51.538;6.728;2023-08-07T09:12:14;101130.28;;;15.20;100.00
19086;BME280;9675;51.538;6.728;2023-08-07T09:14:44;101132.16;;;15.24;100.00
19086;BME280;9675;51.538;6.728;2023-08-07T09:17:14;101133.19;;;15.29;100.00
19086;BME280;9675;51.538;6.728;2023-08-07T09:19:42;101140.22;;;15.31;100.00
19086;BME280;9675;51.538;6.728;2023-08-07T09:22:10;101150.75;;;15.36;100.00
19086;BME280;9675;51.538;6.728;2023-08-07T09:24:37;101155.22;;;15.40;100.00
19086;BME280;9675;51.538;6.728;2023-08-07T09:27:07;101155.22;;;15.40;100.00
19086;BME280;9675;51.538;6.728;2023-08-07T09:29:35;101165.59;;;15.40;100.00
19086;BME280;9675;51.538;6.728;2023-08-07T09:32:07;101163.97;;;15.42;100.00
19086;BME280;9675;51.538;6.728;2023-08-07T09:34:35;101178.72;;;15.45;100.00
19086;BME280;9675;51.538;6.728;2023-08-07T09:37:02;101164.94;;;15.46;100.00
19086;BME280;9675;51.538;6.728;2023-08-07T09:39:31;101167.66;;;15.49;100.00
19086;BME280;9675;51.538;6.728;2023-08-07T09:41:58;101164.31;;;15.51;100.00
19086;BME280;9675;51.538;6.728;2023-08-07T09:44:35;101173.03;;;15.53;100.00
19086;BME280;9675;51.538;6.728;2023-08-07T09:47:12;101167.13;;;15.57;100.00
19086;BME280;9675;51.538;6.728;2023-08-07T09:49:40;101172.41;;;15.60;100.00
19086;BME280;9675;51.538;6.728;2023-08-07T09:52:08;101175.22;;;15.66;100.00
19086;BME280;9675;51.538;6.728;2023-08-07T09:54:37;101173.66;;;15.71;100.00
19086;BME280;9675;51.538;6.728;2023-08-07T09:57:05;101179.81;;;15.75;100.00
19086;BME280;9675;51.538;6.728;2023-08-07T09:59:33;101168.66;;;15.78;100.00
19086;BME280;9675;51.538;6.728;2023-08-07T10:02:02;101168.88;;;15.84;100.00
19086;BME280;9675;51.538;6.728;2023-08-07T10:04:30;101172.50;;;15.89;100.00
19086;BME280;9675;51.538;6.728;2023-08-07T10:06:58;101174.38;;;15.93;100.00
19086;BME280;9675;51.538;6.728;2023-08-07T10:09:27;101176.28;;;15.98;100.00
19086;BME280;9675;51.538;6.728;2023-08-07T10:11:56;101171.25;;;16.03;100.00
19086;BME280;9675;51.538;6.728;2023-08-07T10:14:24;101178.28;;;16.07;100.00
19086;BME280;9675;51.538;6.728;2023-08-07T10:16:52;101175.84;;;16.11;100.00
19086;BME280;9675;51.538;6.728;2023-08-07T10:19:19;101185.53;;;16.15;100.00
19086;BME280;9675;51.538;6.728;2023-08-07T10:21:50;101202.91;;;16.18;100.00
19086;BME280;9675;51.538;6.728;2023-08-07T10:24:18;101197.78;;;16.20;100.00
19086;BME280;9675;51.538;6.728;2023-08-07T10:26:47;101201.25;;;16.20;100.00
19086;BME280;9675;51.538;6.728;2023-08-07T10:29:19;101198.59;;;16.19;100.00
19086;BME280;9675;51.538;6.728;2023-08-07T10:31:48;101200.44;;;16.21;100.00
19086;BME280;9675;51.538;6.728;2023-08-07T10:34:16;101207.44;;;16.24;100.00
19086;BME280;9675;51.538;6.728;2023-08-07T10:36:44;101199.69;;;16.25;100.00
19086;BME280;9675;51.538;6.728;2023-08-07T10:39:12;101200.59;;;16.26;100.00
19086;BME280;9675;51.538;6.728;2023-08-07T10:41:41;101202.34;;;16.27;100.00
19086;BME280;9675;51.538;6.728;2023-08-07T10:44:20;101212.75;;;16.27;100.00
19086;BME280;9675;51.538;6.728;2023-08-07T10:46:49;101199.78;;;16.28;100.00
19086;BME280;9675;51.538;6.728;2023-08-07T10:49:41;101203.38;;;16.32;100.00
19086;BME280;9675;51.538;6.728;2023-08-07T10:52:10;101205.09;;;16.31;100.00
19086;BME280;9675;51.538;6.728;2023-08-07T10:54:39;101206.94;;;16.35;100.00
19086;BME280;9675;51.538;6.728;2023-08-07T10:57:11;101201.84;;;16.38;100.00
19086;BME280;9675;51.538;6.728;2023-08-07T10:59:49;101201.97;;;16.41;100.00
19086;BME280;9675;51.538;6.728;2023-08-07T11:02:24;101200.31;;;16.45;100.00
19086;BME280;9675;51.538;6.728;2023-08-07T11:04:54;101196.97;;;16.49;100.00
19086;BME280;9675;51.538;6.728;2023-08-07T11:07:29;101214.66;;;16.59;100.00
19086;BME280;9675;51.538;6.728;2023-08-07T11:09:58;101211.38;;;16.65;100.00
19086;BME280;9675;51.538;6.728;2023-08-07T11:12:26;101222.78;;;16.70;100.00
19086;BME280;9675;51.538;6.728;2023-08-07T11:14:55;101228.19;;;16.76;100.00
19086;BME280;9675;51.538;6.728;2023-08-07T11:17:25;101244.75;;;16.78;100.00
19086;BME280;9675;51.538;6.728;2023-08-07T11:19:53;101246.59;;;16.82;100.00
19086;BME280;9675;51.538;6.728;2023-08-07T11:22:21;101244.13;;;16.86;100.00
19086;BME280;9675;51.538;6.728;2023-08-07T11:24:49;101246.81;;;16.89;100.00
19086;BME280;9675;51.538;6.728;2023-08-07T11:27:17;101246.97;;;16.94;100.00
19086;BME280;9675;51.538;6.728;2023-08-07T11:29:47;101246.25;;;16.99;100.00
19086;BME280;9675;51.538;6.728;2023-08-07T11:32:18;101256.84;;;17.06;100.00
19086;BME280;9675;51.538;6.728;2023-08-07T11:34:49;101231.81;;;17.09;100.00
19086;BME280;9675;51.538;6.728;2023-08-07T11:37:17;101228.47;;;17.13;100.00
19086;BME280;9675;51.538;6.728;2023-08-07T11:39:45;101226.81;;;17.17;100.00
19086;BME280;9675;51.538;6.728;2023-08-07T11:42:13;101227.88;;;17.23;100.00
19086;BME280;9675;51.538;6.728;2023-08-07T11:44:41;101225.47;;;17.31;100.00
19086;BME280;9675;51.538;6.728;2023-08-07T11:47:09;101231.81;;;17.39;100.00
19086;BME280;9675;51.538;6.728;2023-08-07T11:49:38;101231.13;;;17.46;100.00
19086;BME280;9675;51.538;6.728;2023-08-07T11:52:06;101232.22;;;17.54;100.00
19086;BME280;9675;51.538;6.728;2023-08-07T11:54:34;101230.72;;;17.62;100.00
19086;BME280;9675;51.538;6.728;2023-08-07T11:57:14;101225.81;;;17.71;100.00
19086;BME280;9675;51.538;6.728;2023-08-07T11:59:41;101224.31;;;17.82;100.00
19086;BME280;9675;51.538;6.728;2023-08-07T12:02:11;101227.94;;;17.88;100.00
19086;BME280;9675;51.538;6.728;2023-08-07T12:04:41;101223.72;;;17.91;100.00
19086;BME280;9675;51.538;6.728;2023-08-07T12:07:08;101225.72;;;18.01;100.00
19086;BME280;9675;51.538;6.728;2023-08-07T12:09:37;101230.16;;;18.05;100.00
19086;BME280;9675;51.538;6.728;2023-08-07T12:12:07;101229.41;;;18.11;100.00
19086;BME280;9675;51.538;6.728;2023-08-07T12:14:35;101238.19;;;18.14;100.00
19086;BME280;9675;51.538;6.728;2023-08-07T12:17:02;101236.56;;;18.19;100.00
19086;BME280;9675;51.538;6.728;2023-08-07T12:19:37;101241.94;;;18.25;100.00
19086;BME280;9675;51.538;6.728;2023-08-07T12:22:10;101236.84;;;18.30;100.00
19086;BME280;9675;51.538;6.728;2023-08-07T12:24:37;101245.66;;;18.34;100.00
19086;BME280;9675;51.538;6.728;2023-08-07T12:27:05;101244.88;;;18.38;100.00
19086;BME280;9675;51.538;6.728;2023-08-07T12:29:33;101243.22;;;18.41;100.00
19086;BME280;9675;51.538;6.728;2023-08-07T12:32:01;101247.66;;;18.45;100.00
19086;BME280;9675;51.538;6.728;2023-08-07T12:34:28;101261.66;;;18.49;100.00
19086;BME280;9675;51.538;6.728;2023-08-07T12:36:55;101271.22;;;18.50;100.00
19086;BME280;9675;51.538;6.728;2023-08-07T12:39:24;101255.56;;;18.48;100.00
19086;BME280;9675;51.538;6.728;2023-08-07T12:41:51;101251.22;;;18.49;100.00
19086;BME280;9675;51.538;6.728;2023-08-07T12:44:18;101251.13;;;18.46;100.00
19086;BME280;9675;51.538;6.728;2023-08-07T12:46:45;101241.53;;;18.45;100.00
19086;BME280;9675;51.538;6.728;2023-08-07T12:49:12;101243.34;;;18.47;100.00
19086;BME280;9675;51.538;6.728;2023-08-07T12:51:39;101245.19;;;18.51;100.00
19086;BME280;9675;51.538;6.728;2023-08-07T12:54:06;101236.63;;;18.55;100.00
19086;BME280;9675;51.538;6.728;2023-08-07T12:56:35;101231.53;;;18.60;100.00